Time;durP1;ratioP1;P1;durP2;ratioP2;P2;SDS_P1;SDS_P2;PMS_P1;PMS_P2;Temp;Humidity;BMP_temperature;BMP_pressure;BME280_temperature;BME280_humidity;BME280_pressure;Samples;Min_cycle;Max_cycle;Signal;HPM_P1;HPM_P2
2022/06/09 00:00:34;;;;;;;3.90;1.30;;;11.00;99.90;;;;;;4960103;28;20078;-73
2022/06/09 00:03:16;;;;;;;1.73;1.38;;;11.30;99.90;;;;;;4961371;28;20023;-67
2022/06/09 00:05:44;;;;;;;1.73;1.20;;;11.50;99.90;;;;;;4960969;28;20903;-73
2022/06/09 00:08:12;;;;;;;2.13;1.20;;;11.60;99.90;;;;;;4960474;28;20038;-69
2022/06/09 00:10:47;;;;;;;5.70;2.70;;;11.70;99.90;;;;;;4962854;28;20085;-73
2022/06/09 00:13:15;;;;;;;2.67;1.25;;;12.00;99.90;;;;;;4959081;28;20023;-73
2022/06/09 00:15:42;;;;;;;0.50;0.47;;;12.40;98.20;;;;;;4958420;28;20031;-66
2022/06/09 00:18:10;;;;;;;1.25;0.70;;;12.70;97.80;;;;;;4944197;28;20031;-71
2022/06/09 00:20:37;;;;;;;1.27;0.70;;;12.80;96.80;;;;;;4955628;28;20094;-70
2022/06/09 00:23:04;;;;;;;2.25;1.50;;;13.00;95.80;;;;;;4960717;28;20364;-68
2022/06/09 00:25:33;;;;;;;2.47;1.13;;;13.00;95.90;;;;;;4963691;28;20034;-71
2022/06/09 00:28:00;;;;;;;2.60;0.80;;;13.00;95.90;;;;;;4958387;28;20396;-70
2022/06/09 00:30:27;;;;;;;0.65;0.63;;;13.30;95.20;;;;;;4962193;28;20047;-70
2022/06/09 00:32:54;;;;;;;2.20;0.77;;;13.40;95.10;;;;;;4962808;28;20153;-68
2022/06/09 00:35:21;;;;;;;3.45;1.10;;;13.40;94.60;;;;;;4964190;28;20776;-71
2022/06/09 00:37:49;;;;;;;0.98;0.80;;;13.60;94.10;;;;;;4958257;28;20023;-69
2022/06/09 00:40:17;;;;;;;1.52;0.60;;;13.70;94.30;;;;;;4962713;28;20028;-66
2022/06/09 00:42:44;;;;;;;1.98;0.57;;;13.80;94.60;;;;;;4961684;28;20034;-66
2022/06/09 00:45:24;;;;;;;3.00;1.35;;;14.10;93.10;;;;;;4960150;28;20058;-67
2022/06/09 00:47:53;;;;;;;2.17;1.45;;;14.20;93.20;;;;;;4961067;28;20030;-70
2022/06/09 00:50:25;;;;;;;0.55;0.50;;;14.30;93.30;;;;;;4963799;28;20035;-66
2022/06/09 00:52:58;;;;;;;2.80;0.82;;;14.40;92.80;;;;;;4960647;28;20034;-71
2022/06/09 00:55:28;;;;;;;6.13;1.30;;;14.50;92.60;;;;;;4959265;28;20034;-71
2022/06/09 00:58:03;;;;;;;2.55;0.77;;;14.60;92.00;;;;;;4968264;28;20113;-71
2022/06/09 01:00:42;;;;;;;0.90;0.50;;;14.60;92.50;;;;;;4963960;28;20023;-71
2022/06/09 01:03:09;;;;;;;0.63;0.50;;;14.70;91.90;;;;;;4966378;28;20050;-71
2022/06/09 01:05:40;;;;;;;2.08;0.75;;;14.80;92.00;;;;;;4966280;28;20043;-67
2022/06/09 01:08:11;;;;;;;0.68;0.68;;;14.90;91.30;;;;;;4961015;28;20027;-71
2022/06/09 01:10:38;;;;;;;0.55;0.52;;;15.10;91.80;;;;;;4963101;28;20030;-67
2022/06/09 01:13:06;;;;;;;1.17;0.80;;;15.10;91.50;;;;;;4964209;28;20027;-67
2022/06/09 01:16:19;;;;;;;0.82;0.70;;;15.30;91.20;;;;;;4963278;28;20122;-67
2022/06/09 01:18:59;;;;;;;2.05;1.10;;;15.30;90.80;;;;;;4898486;29;20052;-71
2022/06/09 01:21:50;;;;;;;2.60;0.80;;;15.10;90.40;;;;;;4900090;29;20060;-67
2022/06/09 01:24:34;;;;;;;1.83;0.70;;;15.10;91.10;;;;;;4898109;29;20025;-67
2022/06/09 01:27:01;;;;;;;2.67;0.50;;;15.20;90.50;;;;;;4899159;29;20032;-67
2022/06/09 01:29:38;;;;;;;0.50;0.40;;;15.20;90.30;;;;;;4882491;29;20055;-72
2022/06/09 01:32:13;;;;;;;0.70;0.50;;;15.40;90.50;;;;;;4901117;29;20050;-67
2022/06/09 01:34:53;;;;;;;0.32;0.28;;;15.40;89.60;;;;;;4897020;29;20040;-67
2022/06/09 01:37:46;;;;;;;0.32;0.30;;;15.50;90.20;;;;;;4885288;29;20046;-68
2022/06/09 01:40:14;;;;;;;;;;;15.50;88.40;;;;;;4900201;29;20645;-67
2022/06/09 01:42:45;;;;;;;0.70;0.40;;;15.70;88.30;;;;;;4901119;29;19997;-71
2022/06/09 01:45:22;;;;;;;0.47;0.25;;;15.80;86.70;;;;;;4895794;29;20537;-71
2022/06/09 01:48:11;;;;;;;2.72;0.70;;;15.80;86.40;;;;;;4900174;29;20032;-71
2022/06/09 01:50:57;;;;;;;0.85;0.30;;;15.80;86.40;;;;;;4962472;28;20047;-67
2022/06/09 01:53:35;;;;;;;0.95;0.30;;;15.80;86.20;;;;;;4963960;28;20531;-66
2022/06/09 01:56:14;;;;;;;0.20;0.20;;;16.00;87.90;;;;;;4959743;28;20491;-67
2022/06/09 01:58:52;;;;;;;0.65;0.40;;;16.10;85.90;;;;;;4964381;28;20476;-71
2022/06/09 02:01:26;;;;;;;0.30;0.20;;;16.10;84.70;;;;;;4963125;28;20030;-68
2022/06/09 02:03:57;;;;;;;0.20;0.20;;;16.20;86.00;;;;;;4962715;28;20030;-68
2022/06/09 02:06:26;;;;;;;0.82;0.30;;;16.40;85.20;;;;;;4964879;28;20032;-71
2022/06/09 02:08:54;;;;;;;0.63;0.57;;;16.30;84.50;;;;;;4962607;28;20039;-67
2022/06/09 02:11:21;;;;;;;1.45;0.28;;;16.20;84.60;;;;;;4952623;28;20167;-67
2022/06/09 02:13:51;;;;;;;0.20;0.20;;;16.10;84.20;;;;;;4959349;28;20138;-66
2022/06/09 02:16:21;;;;;;;0.40;0.30;;;16.10;84.50;;;;;;4953143;28;20099;-72
2022/06/09 02:18:55;;;;;;;0.20;0.20;;;16.10;83.90;;;;;;4952717;28;20082;-71
2022/06/09 02:21:30;;;;;;;0.55;0.30;;;16.20;82.30;;;;;;4953053;28;20031;-72
2022/06/09 02:23:57;;;;;;;0.75;0.40;;;16.20;82.20;;;;;;4954573;28;20035;-71
2022/06/09 02:26:25;;;;;;;2.75;0.65;;;16.20;82.30;;;;;;4955531;28;20063;-67
2022/06/09 02:28:53;;;;;;;4.20;0.68;;;16.20;82.70;;;;;;4951971;28;20023;-70
2022/06/09 02:31:22;;;;;;;1.15;0.40;;;16.30;83.50;;;;;;4956292;28;20169;-67
2022/06/09 02:33:51;;;;;;;1.17;0.38;;;16.20;83.10;;;;;;4954268;28;20728;-66
2022/06/09 02:36:18;;;;;;;1.50;0.60;;;16.50;81.30;;;;;;4952595;28;20082;-70
2022/06/09 02:38:45;;;;;;;4.10;0.80;;;16.60;80.90;;;;;;4952757;28;20023;-66
2022/06/09 02:41:13;;;;;;;2.28;0.80;;;16.50;81.50;;;;;;4954545;28;20081;-66
2022/06/09 02:43:41;;;;;;;2.65;0.70;;;16.40;81.50;;;;;;4955697;28;20031;-67
2022/06/09 02:46:09;;;;;;;3.78;0.60;;;16.40;81.70;;;;;;4957593;28;20069;-71
2022/06/09 02:48:36;;;;;;;4.28;0.82;;;16.50;82.50;;;;;;4951919;28;20468;-66
2022/06/09 02:51:32;;;;;;;1.98;1.10;;;16.80;80.90;;;;;;4956923;28;21465;-67
2022/06/09 02:54:05;;;;;;;1.63;0.40;;;16.80;80.40;;;;;;4961925;28;20094;-67
2022/06/09 02:56:33;;;;;;;0.80;0.40;;;17.00;81.90;;;;;;4952364;28;20420;-67
2022/06/09 02:59:00;;;;;;;0.25;0.20;;;17.10;81.50;;;;;;4953178;28;20030;-71
2022/06/09 03:01:31;;;;;;;0.25;0.13;;;17.30;80.10;;;;;;4962511;28;20109;-71
2022/06/09 03:03:59;;;;;;;0.47;0.20;;;17.20;80.20;;;;;;4952262;28;20023;-66
2022/06/09 03:06:26;;;;;;;3.88;0.40;;;17.20;79.10;;;;;;4955874;28;20329;-65
2022/06/09 03:08:53;;;;;;;3.20;1.85;;;17.10;79.60;;;;;;4951506;28;20027;-67
2022/06/09 03:11:20;;;;;;;3.53;0.93;;;17.20;79.60;;;;;;4958143;28;20114;-71
2022/06/09 03:13:47;;;;;;;7.18;1.13;;;17.30;79.20;;;;;;4950651;28;20027;-69
2022/06/09 03:16:16;;;;;;;3.25;0.77;;;17.30;79.20;;;;;;4952017;28;20555;-69
2022/06/09 03:18:44;;;;;;;3.65;0.82;;;17.30;78.30;;;;;;4951813;28;20267;-70
2022/06/09 03:21:13;;;;;;;5.88;0.65;;;17.40;79.30;;;;;;4953266;28;20082;-71
2022/06/09 03:23:41;;;;;;;3.08;0.50;;;17.40;78.20;;;;;;4957468;28;20036;-71
2022/06/09 03:26:08;;;;;;;2.33;0.50;;;17.20;78.80;;;;;;4957707;28;20062;-66
2022/06/09 03:28:36;;;;;;;3.08;0.47;;;17.30;79.20;;;;;;4952531;28;20031;-66
2022/06/09 03:31:03;;;;;;;2.70;0.55;;;17.40;78.10;;;;;;4958884;28;20061;-70
2022/06/09 03:33:30;;;;;;;4.50;0.93;;;17.50;76.80;;;;;;4956824;28;20535;-70
2022/06/09 03:35:57;;;;;;;1.08;0.63;;;17.40;78.30;;;;;;4933506;29;20025;-66
2022/06/09 03:38:25;;;;;;;1.70;1.30;;;17.40;75.90;;;;;;4950774;28;20027;-70
2022/06/09 03:40:52;;;;;;;0.57;0.40;;;17.20;76.30;;;;;;4951069;28;20027;-71
2022/06/09 03:43:19;;;;;;;1.10;0.20;;;17.30;77.90;;;;;;4958215;28;20476;-71
2022/06/09 03:45:46;;;;;;;0.20;0.20;;;17.20;76.80;;;;;;4951219;28;20215;-65
2022/06/09 03:48:13;;;;;;;0.85;0.30;;;17.10;77.50;;;;;;4954734;28;20093;-70
2022/06/09 03:50:40;;;;;;;0.20;0.20;;;17.20;76.70;;;;;;4958704;28;20066;-69
2022/06/09 03:53:07;;;;;;;1.00;0.80;;;16.80;76.90;;;;;;4951058;28;20123;-63
2022/06/09 03:55:34;;;;;;;0.38;0.30;;;16.80;77.60;;;;;;4956564;28;20027;-72
2022/06/09 03:58:01;;;;;;;0.28;0.17;;;16.90;77.30;;;;;;4957421;28;20089;-63
2022/06/09 04:00:31;;;;;;;1.75;0.30;;;17.00;77.00;;;;;;4951439;28;20015;-64
2022/06/09 04:02:58;;;;;;;0.35;0.28;;;17.10;76.90;;;;;;4950906;28;20055;-67
2022/06/09 04:05:27;;;;;;;0.90;0.32;;;17.10;76.30;;;;;;4950805;28;20034;-72
2022/06/09 04:07:55;;;;;;;3.75;0.75;;;17.10;77.10;;;;;;4953996;28;20035;-66
2022/06/09 04:10:30;;;;;;;8.38;0.90;;;17.10;76.60;;;;;;4957039;28;20066;-64
2022/06/09 04:12:58;;;;;;;1.83;0.50;;;17.00;77.10;;;;;;4950669;28;20419;-72
2022/06/09 04:15:25;;;;;;;2.85;0.57;;;16.70;75.90;;;;;;4951317;28;20023;-64
2022/06/09 04:17:53;;;;;;;5.53;0.55;;;16.60;78.40;;;;;;4955267;28;20030;-70
2022/06/09 04:20:24;;;;;;;2.47;0.32;;;16.70;77.00;;;;;;4962529;28;20024;-65
2022/06/09 04:22:52;;;;;;;1.13;0.43;;;16.60;77.30;;;;;;4962666;28;20030;-64
2022/06/09 04:25:20;;;;;;;2.58;0.40;;;16.40;77.70;;;;;;4966616;28;20030;-63
2022/06/09 04:27:48;;;;;;;2.00;0.50;;;16.40;77.20;;;;;;4965083;28;20027;-64
2022/06/09 04:30:16;;;;;;;0.10;0.10;;;16.50;77.50;;;;;;4960502;28;20051;-69
2022/06/09 04:32:44;;;;;;;1.13;0.20;;;16.40;77.60;;;;;;4957661;28;20039;-70
2022/06/09 04:35:12;;;;;;;0.75;0.30;;;16.40;77.50;;;;;;4963753;28;20018;-71
2022/06/09 04:40:27;;;;;;;3.30;0.75;;;16.20;76.50;;;;;;4966713;28;20022;-66
2022/06/09 04:42:54;;;;;;;2.08;0.55;;;16.10;77.40;;;;;;4962765;28;20039;-64
2022/06/09 04:45:22;;;;;;;4.38;0.50;;;16.20;75.90;;;;;;4965348;28;20030;-70
2022/06/09 04:47:49;;;;;;;3.78;0.47;;;16.00;76.60;;;;;;4961869;28;20057;-63
2022/06/09 04:50:18;;;;;;;4.57;1.17;;;16.00;77.60;;;;;;4961406;28;20101;-64
2022/06/09 04:52:45;;;;;;;3.70;0.40;;;16.20;77.00;;;;;;4958735;28;20041;-71
2022/06/09 04:55:12;;;;;;;4.63;0.80;;;16.20;76.80;;;;;;4963209;28;20490;-64
2022/06/09 04:57:40;;;;;;;2.58;0.40;;;16.20;76.80;;;;;;4967799;28;20061;-63
2022/06/09 05:00:09;;;;;;;0.90;0.50;;;16.20;76.60;;;;;;4967666;28;20100;-74
2022/06/09 05:02:37;;;;;;;2.33;0.47;;;16.10;76.90;;;;;;4964555;28;20044;-67
2022/06/09 05:05:05;;;;;;;2.65;0.65;;;16.20;77.10;;;;;;4958673;28;20419;-66
2022/06/09 05:07:32;;;;;;;3.53;0.77;;;16.20;76.00;;;;;;4961916;28;20023;-66
2022/06/09 05:09:59;;;;;;;3.60;0.70;;;16.20;76.80;;;;;;4965152;28;20121;-72
2022/06/09 05:12:27;;;;;;;4.00;0.90;;;16.40;77.20;;;;;;4965920;28;20031;-71
2022/06/09 05:14:54;;;;;;;1.52;0.63;;;16.40;76.40;;;;;;4957724;28;20531;-72
2022/06/09 05:17:21;;;;;;;0.68;0.47;;;16.50;77.80;;;;;;4959759;28;20037;-67
2022/06/09 05:19:48;;;;;;;0.60;0.40;;;16.50;77.40;;;;;;4959519;28;20046;-68
2022/06/09 05:22:15;;;;;;;1.60;0.38;;;16.60;77.40;;;;;;4964912;28;20058;-68
2022/06/09 05:24:43;;;;;;;0.55;0.20;;;16.70;77.50;;;;;;4961162;28;20058;-70
2022/06/09 05:27:11;;;;;;;0.88;0.30;;;16.70;76.60;;;;;;4968412;28;20089;-66
2022/06/09 05:29:39;;;;;;;4.03;0.77;;;16.40;77.20;;;;;;5009909;23;20051;-69
2022/06/09 05:32:06;;;;;;;2.17;0.68;;;16.20;77.20;;;;;;4957628;28;20035;-65
2022/06/09 05:34:33;;;;;;;1.88;0.40;;;16.10;77.70;;;;;;4960805;28;20018;-63
2022/06/09 05:37:03;;;;;;;0.63;0.30;;;16.00;77.20;;;;;;4958806;28;20511;-67
2022/06/09 05:45:03;;;;;;;2.25;0.55;;;16.50;78.40;;;;;;4959474;28;21633;-67
2022/06/09 05:47:30;;;;;;;1.35;0.45;;;16.30;77.30;;;;;;4949074;29;20046;-67
2022/06/09 05:49:57;;;;;;;0.40;0.20;;;15.50;79.00;;;;;;4958369;28;20051;-71
2022/06/09 05:52:27;;;;;;;0.17;0.10;;;15.10;80.10;;;;;;4963072;28;20022;-66
2022/06/09 05:54:55;;;;;;;0.40;0.20;;;14.80;81.30;;;;;;4958833;28;20511;-69
2022/06/09 05:57:24;;;;;;;0.43;0.40;;;14.60;82.30;;;;;;4960674;28;20547;-67
2022/06/09 05:59:52;;;;;;;0.20;0.20;;;14.50;83.00;;;;;;4957547;28;20028;-67
2022/06/09 06:02:22;;;;;;;1.75;0.20;;;14.50;83.30;;;;;;4944410;28;20083;-70
2022/06/09 06:04:50;;;;;;;0.50;0.30;;;14.50;83.10;;;;;;4934817;29;20035;-68
2022/06/09 06:07:17;;;;;;;0.70;0.30;;;14.40;84.00;;;;;;4943794;29;20062;-68
2022/06/09 06:09:45;;;;;;;2.08;0.85;;;14.40;83.80;;;;;;4937065;29;20062;-61
2022/06/09 06:12:13;;;;;;;2.05;0.45;;;14.40;83.80;;;;;;4938308;29;20053;-64
2022/06/09 06:14:41;;;;;;;0.65;0.32;;;14.30;84.50;;;;;;4944515;29;20466;-66
2022/06/09 06:17:09;;;;;;;1.25;0.45;;;14.20;84.70;;;;;;4945066;28;20082;-75
2022/06/09 06:19:38;;;;;;;0.40;0.32;;;14.10;85.10;;;;;;4938269;29;20114;-63
2022/06/09 06:22:05;;;;;;;0.80;0.55;;;13.90;85.90;;;;;;4941499;29;20031;-61
2022/06/09 06:24:32;;;;;;;0.65;0.30;;;13.90;85.60;;;;;;4943557;29;20039;-75
2022/06/09 06:26:59;;;;;;;2.05;0.20;;;13.90;86.10;;;;;;4937435;29;20031;-67
2022/06/09 06:29:28;;;;;;;0.80;0.60;;;13.80;86.50;;;;;;4938928;28;20075;-64
2022/06/09 06:31:55;;;;;;;0.50;0.40;;;13.70;86.90;;;;;;4941640;28;20511;-65
2022/06/09 06:34:23;;;;;;;1.05;0.90;;;13.70;86.50;;;;;;4940018;28;20118;-63
2022/06/09 06:36:50;;;;;;;0.50;0.50;;;13.50;86.80;;;;;;4942616;28;20027;-65
2022/06/09 06:39:17;;;;;;;0.85;0.20;;;13.50;87.30;;;;;;4941798;29;20102;-66
2022/06/09 06:41:44;;;;;;;0.43;0.40;;;13.40;87.40;;;;;;4945594;29;20031;-74
2022/06/09 06:44:12;;;;;;;0.43;0.30;;;13.30;87.50;;;;;;4937906;29;20031;-64
2022/06/09 06:46:39;;;;;;;1.75;0.50;;;13.20;88.10;;;;;;4946557;29;20031;-75
2022/06/09 06:49:08;;;;;;;0.52;0.40;;;13.10;88.20;;;;;;4937639;29;20570;-73
2022/06/09 06:51:36;;;;;;;0.32;0.30;;;13.00;88.50;;;;;;4940333;29;20036;-73
2022/06/09 06:54:05;;;;;;;0.60;0.22;;;13.00;88.80;;;;;;4943747;28;20035;-60
2022/06/09 06:56:34;;;;;;;0.20;0.20;;;12.90;89.60;;;;;;4942134;29;20162;-63
2022/06/09 06:59:02;;;;;;;0.50;0.30;;;12.80;89.80;;;;;;4941554;29;20077;-74
2022/06/09 07:01:30;;;;;;;1.60;0.55;;;12.60;90.10;;;;;;4943475;29;20625;-62
2022/06/09 07:03:58;;;;;;;0.85;0.40;;;12.60;90.20;;;;;;4942616;29;20035;-64
2022/06/09 07:06:25;;;;;;;2.28;0.50;;;12.50;90.50;;;;;;4940756;28;20090;-65
2022/06/09 07:08:52;;;;;;;4.43;0.95;;;12.40;90.90;;;;;;4938032;29;20571;-64
2022/06/09 07:11:20;;;;;;;5.20;0.90;;;12.30;91.00;;;;;;4938230;29;20030;-63
2022/06/09 07:13:49;;;;;;;4.47;0.82;;;12.30;91.20;;;;;;4938626;29;20082;-64
2022/06/09 07:16:17;;;;;;;1.90;0.73;;;12.10;91.50;;;;;;4940551;28;20057;-64
2022/06/09 07:18:44;;;;;;;3.33;1.00;;;11.80;92.30;;;;;;4940323;28;20383;-59
2022/06/09 07:21:11;;;;;;;1.90;1.20;;;11.70;92.60;;;;;;4941806;29;20579;-63
2022/06/09 07:23:42;;;;;;;2.72;1.30;;;11.60;92.90;;;;;;4936773;29;20032;-63
2022/06/09 07:26:09;;;;;;;1.20;1.10;;;11.80;92.40;;;;;;4937027;29;20031;-72
2022/06/09 07:28:36;;;;;;;9.23;3.22;;;11.90;92.20;;;;;;4929825;28;20188;-73
2022/06/09 07:31:06;;;;;;;5.75;1.13;;;11.80;92.40;;;;;;4937300;29;20462;-62
2022/06/09 07:33:36;;;;;;;2.40;1.30;;;11.90;92.10;;;;;;4934103;29;20715;-66
2022/06/09 07:36:11;;;;;;;7.18;2.10;;;11.80;92.30;;;;;;4938441;29;20031;-60
2022/06/09 07:38:38;;;;;;;5.25;2.83;;;11.80;92.30;;;;;;4935338;29;20028;-64
2022/06/09 07:41:06;;;;;;;2.03;1.30;;;11.80;92.50;;;;;;4935228;29;20689;-65
2022/06/09 07:43:33;;;;;;;1.27;0.90;;;11.70;92.40;;;;;;4937495;29;20031;-64
2022/06/09 07:46:01;;;;;;;1.23;0.90;;;11.80;92.40;;;;;;4940708;28;20020;-63
2022/06/09 07:48:29;;;;;;;2.17;1.10;;;11.70;92.40;;;;;;4938661;28;20118;-73
2022/06/09 07:50:56;;;;;;;3.30;0.93;;;11.60;92.70;;;;;;4939582;29;20027;-64
2022/06/09 07:53:25;;;;;;;0.73;0.52;;;11.60;92.80;;;;;;4935066;29;20070;-70
2022/06/09 07:55:52;;;;;;;1.48;0.98;;;11.50;93.00;;;;;;4937538;28;20408;-70
2022/06/09 07:58:20;;;;;;;1.00;0.65;;;11.30;93.30;;;;;;4931650;29;20541;-72
2022/06/09 08:00:48;;;;;;;4.35;0.95;;;11.20;93.40;;;;;;4936708;29;20023;-62
2022/06/09 08:03:21;;;;;;;1.05;0.70;;;11.20;93.40;;;;;;4936738;29;20118;-73
2022/06/09 08:05:49;;;;;;;0.88;0.75;;;11.10;93.60;;;;;;4943228;28;20077;-64
2022/06/09 08:08:16;;;;;;;4.55;0.85;;;11.00;94.00;;;;;;4936262;28;20039;-61
2022/06/09 08:10:44;;;;;;;2.22;0.98;;;10.80;94.50;;;;;;4937707;29;20071;-63
2022/06/09 08:13:13;;;;;;;4.13;1.10;;;10.60;94.70;;;;;;4934019;28;20118;-60
2022/06/09 08:15:44;;;;;;;4.18;1.10;;;10.70;95.00;;;;;;4935089;29;20027;-62
2022/06/09 08:18:15;;;;;;;4.18;1.60;;;10.60;95.40;;;;;;4935275;29;20102;-72
2022/06/09 08:20:44;;;;;;;1.30;0.98;;;10.50;95.60;;;;;;4936889;29;20032;-73
2022/06/09 08:23:17;;;;;;;5.03;0.95;;;10.40;96.00;;;;;;4935326;29;20034;-66
2022/06/09 08:25:46;;;;;;;3.65;1.23;;;10.50;96.20;;;;;;4932326;28;20039;-62
2022/06/09 08:28:17;;;;;;;4.82;1.02;;;10.40;96.40;;;;;;4934826;28;20023;-62
2022/06/09 08:30:45;;;;;;;1.60;0.82;;;10.20;96.80;;;;;;4937418;28;20063;-69
2022/06/09 08:33:12;;;;;;;1.45;0.75;;;10.00;97.10;;;;;;4938167;29;20035;-64
2022/06/09 08:35:39;;;;;;;1.67;0.93;;;9.80;98.20;;;;;;4937366;29;20101;-61
2022/06/09 08:38:07;;;;;;;0.98;0.73;;;9.60;98.60;;;;;;4937012;29;20039;-62
2022/06/09 08:40:40;;;;;;;1.17;0.88;;;9.50;98.70;;;;;;4934080;29;20032;-62
2022/06/09 08:43:23;;;;;;;0.73;0.65;;;9.40;99.30;;;;;;4939549;29;20772;-66
2022/06/09 08:45:53;;;;;;;1.15;0.80;;;9.60;98.90;;;;;;4935347;29;20455;-67
2022/06/09 08:48:23;;;;;;;1.63;0.93;;;10.00;98.30;;;;;;4938349;29;20032;-61
2022/06/09 08:50:57;;;;;;;3.72;2.20;;;10.20;98.00;;;;;;4938597;29;20286;-64
2022/06/09 08:53:37;;;;;;;2.40;1.73;;;10.20;98.20;;;;;;4937762;29;20027;-68
2022/06/09 08:56:17;;;;;;;1.75;1.25;;;10.30;98.10;;;;;;4935777;28;20027;-59
2022/06/09 08:58:52;;;;;;;1.00;0.70;;;10.20;98.20;;;;;;4936979;29;20027;-64
2022/06/09 09:01:28;;;;;;;1.23;0.93;;;10.20;98.40;;;;;;4938359;28;20055;-69
2022/06/09 09:04:13;;;;;;;1.70;1.17;;;10.20;98.50;;;;;;4936656;29;20035;-62
2022/06/09 09:06:51;;;;;;;1.83;1.50;;;10.10;99.00;;;;;;4938456;28;20408;-63
2022/06/09 09:09:26;;;;;;;2.22;1.45;;;10.10;99.10;;;;;;4940190;29;20034;-67
2022/06/09 09:12:13;;;;;;;2.50;1.63;;;10.00;98.80;;;;;;4937885;28;20035;-62
2022/06/09 09:14:48;;;;;;;3.00;1.92;;;10.00;99.10;;;;;;4945060;28;20027;-64
2022/06/09 09:17:51;;;;;;;1.25;0.73;;;10.00;99.20;;;;;;4944818;29;20029;-63
2022/06/09 09:20:21;;;;;;;1.42;0.98;;;10.00;99.20;;;;;;4946375;29;20050;-68
2022/06/09 09:23:11;;;;;;;2.20;1.00;;;9.90;99.70;;;;;;4941308;29;20023;-68
2022/06/09 09:25:49;;;;;;;1.23;0.90;;;9.70;99.90;;;;;;4957955;28;20033;-64
2022/06/09 09:28:30;;;;;;;1.15;0.82;;;9.50;99.90;;;;;;4944154;29;20035;-65
2022/06/09 09:31:01;;;;;;;3.90;1.58;;;9.20;99.90;;;;;;4941407;29;20062;-68
2022/06/09 09:33:29;;;;;;;6.68;2.63;;;9.10;99.90;;;;;;4941106;29;20508;-66
2022/06/09 09:36:05;;;;;;;2.80;1.52;;;8.90;99.90;;;;;;4956623;28;20047;-65
2022/06/09 09:38:42;;;;;;;3.50;2.05;;;8.70;99.90;;;;;;4939743;29;20122;-65
2022/06/09 09:41:27;;;;;;;2.55;1.70;;;8.70;99.90;;;;;;4939387;28;20694;-65
2022/06/09 09:43:56;;;;;;;4.35;2.08;;;8.60;99.90;;;;;;4941958;29;20114;-62
2022/06/09 09:46:34;;;;;;;2.95;1.90;;;8.50;99.90;;;;;;4941189;29;20034;-69
2022/06/09 09:49:15;;;;;;;3.33;2.00;;;8.30;99.90;;;;;;4939750;29;20039;-62
2022/06/09 09:51:43;;;;;;;4.25;2.60;;;8.20;99.90;;;;;;4942648;29;20055;-71
2022/06/09 09:54:26;;;;;;;6.85;5.38;;;8.00;99.90;;;;;;4941365;29;20035;-70
2022/06/09 09:57:15;;;;;;;7.32;5.53;;;8.00;99.90;;;;;;4940064;29;20031;-65
2022/06/09 10:00:00;;;;;;;5.57;3.85;;;7.80;99.90;;;;;;4941993;29;20088;-72
2022/06/09 10:08:47;;;;;;;5.07;3.78;;;7.50;99.90;;;;;;4939296;29;20403;-64
2022/06/09 10:14:44;;;;;;;5.10;3.22;;;7.50;99.90;;;;;;4943550;29;20046;-67
2022/06/09 10:17:48;;;;;;;6.28;4.20;;;7.40;99.90;;;;;;4956893;28;20035;-64
2022/06/09 10:20:18;;;;;;;9.48;5.53;;;7.40;99.90;;;;;;4941968;28;20028;-66
2022/06/09 10:22:58;;;;;;;6.15;3.75;;;7.50;99.90;;;;;;4944054;29;20515;-66
2022/06/09 10:25:41;;;;;;;4.93;3.20;;;7.70;99.90;;;;;;4943251;29;20085;-65
2022/06/09 10:28:39;;;;;;;5.53;3.20;;;7.50;99.90;;;;;;4957080;28;20132;-69
2022/06/09 10:31:24;;;;;;;4.50;2.60;;;7.50;99.90;;;;;;4942471;29;20150;-62
2022/06/09 10:34:33;;;;;;;4.47;3.22;;;7.50;99.90;;;;;;4941834;29;20043;-64
2022/06/09 10:37:28;;;;;;;7.00;4.93;;;7.60;99.90;;;;;;4939069;29;20482;-70
2022/06/09 10:40:29;;;;;;;5.13;3.58;;;7.40;99.90;;;;;;4901072;29;20104;-64
2022/06/09 10:43:14;;;;;;;4.00;2.88;;;7.20;99.90;;;;;;4849536;29;20044;-66
2022/06/09 10:45:57;;;;;;;3.97;2.55;;;7.10;99.90;;;;;;4866197;29;20052;-72
2022/06/09 10:55:24;;;;;;;2.00;1.73;;;7.20;99.90;;;;;;4793422;29;20097;-71
2022/06/09 10:58:01;;;;;;;3.03;2.28;;;7.40;99.90;;;;;;4793224;29;20066;-64
2022/06/09 11:00:36;;;;;;;5.15;2.65;;;7.50;99.90;;;;;;4793911;29;20491;-62
2022/06/09 11:03:31;;;;;;;3.63;2.60;;;7.40;99.90;;;;;;4791787;29;20153;-73
2022/06/09 11:06:19;;;;;;;7.88;3.15;;;7.30;99.90;;;;;;4790980;29;20061;-61
2022/06/09 11:08:51;;;;;;;5.15;2.83;;;7.30;99.90;;;;;;4790573;29;20119;-66
2022/06/09 11:11:27;;;;;;;3.70;2.53;;;7.20;99.90;;;;;;4791614;29;20146;-61
2022/06/09 11:14:00;;;;;;;7.15;3.13;;;7.20;99.90;;;;;;4791203;29;20968;-65
2022/06/09 11:16:46;;;;;;;4.30;3.15;;;7.20;99.90;;;;;;4793531;29;20095;-65
2022/06/09 11:19:16;;;;;;;4.18;2.15;;;7.20;99.90;;;;;;4814206;29;20038;-62
2022/06/09 11:21:52;;;;;;;5.13;2.30;;;7.30;99.90;;;;;;4848959;29;20053;-65
2022/06/09 11:24:34;;;;;;;3.40;2.50;;;7.30;99.90;;;;;;4848516;29;20052;-65
2022/06/09 11:27:32;;;;;;;3.15;1.98;;;7.40;99.90;;;;;;4863952;29;20035;-61
2022/06/09 11:30:22;;;;;;;4.13;2.33;;;7.40;99.90;;;;;;4921536;28;20135;-72
2022/06/09 11:33:20;;;;;;;2.72;2.35;;;7.60;99.90;;;;;;4930756;28;20142;-75
2022/06/09 11:36:18;;;;;;;3.83;2.47;;;7.60;99.90;;;;;;4928943;29;20034;-67
2022/06/09 11:38:51;;;;;;;3.38;2.30;;;7.60;99.90;;;;;;4933590;29;20020;-67
2022/06/09 11:41:18;;;;;;;;;;;7.40;99.90;;;;;;4932349;28;20023;-69
2022/06/09 11:44:01;;;;;;;2.72;1.85;;;7.30;99.90;;;;;;4934100;29;20412;-70
2022/06/09 11:46:39;;;;;;;7.40;4.97;;;7.30;99.90;;;;;;4928564;29;20042;-66
2022/06/09 11:49:15;;;;;;;4.75;2.83;;;7.30;99.90;;;;;;4927618;29;20062;-68
2022/06/09 11:51:42;;;;;;;5.03;2.50;;;7.30;99.90;;;;;;4929786;29;20071;-69
2022/06/09 11:54:36;;;;;;;6.13;2.45;;;7.30;99.90;;;;;;4928282;29;20028;-68
2022/06/09 11:57:33;;;;;;;4.80;2.70;;;7.20;99.90;;;;;;4936115;28;20027;-75
2022/06/09 12:00:23;;;;;;;5.93;3.88;;;7.00;99.90;;;;;;4936406;28;20036;-70
2022/06/09 12:02:53;;;;;;;3.45;2.70;;;6.90;99.90;;;;;;4936605;29;20492;-65
2022/06/09 12:05:35;;;;;;;3.60;2.17;;;6.90;99.90;;;;;;4938549;29;20484;-65
2022/06/09 12:08:32;;;;;;;4.60;2.63;;;6.70;99.90;;;;;;4937899;29;20351;-69
2022/06/09 12:11:07;;;;;;;3.42;2.40;;;6.60;99.90;;;;;;4935869;29;20723;-65
2022/06/09 12:14:00;;;;;;;4.07;2.30;;;6.60;99.90;;;;;;4936881;28;20743;-65
2022/06/09 12:16:32;;;;;;;7.05;2.60;;;6.60;99.90;;;;;;4937750;29;20031;-74
2022/06/09 12:19:14;;;;;;;5.43;2.78;;;6.50;99.90;;;;;;4936507;29;20039;-68
2022/06/09 12:21:47;;;;;;;3.22;2.00;;;6.60;99.90;;;;;;4939131;28;20031;-66
2022/06/09 12:24:14;;;;;;;4.38;2.20;;;6.60;99.90;;;;;;4943887;29;20031;-70
2022/06/09 12:26:44;;;;;;;4.07;1.80;;;6.50;99.90;;;;;;4940772;28;20031;-66
2022/06/09 12:29:22;;;;;;;3.40;1.40;;;6.50;99.90;;;;;;4940214;29;20039;-68
2022/06/09 12:32:11;;;;;;;3.03;1.60;;;6.60;99.90;;;;;;4940882;28;20178;-66
2022/06/09 12:34:53;;;;;;;1.50;1.27;;;6.70;99.90;;;;;;4945600;29;20035;-66
2022/06/09 12:37:22;;;;;;;3.25;1.45;;;6.60;99.90;;;;;;4942605;28;20040;-68
2022/06/09 12:40:20;;;;;;;4.93;2.08;;;6.60;99.90;;;;;;4939389;29;20019;-70
2022/06/09 12:43:19;;;;;;;3.60;1.65;;;6.50;99.90;;;;;;4867317;29;20042;-68
2022/06/09 12:46:00;;;;;;;3.65;1.90;;;6.40;99.90;;;;;;4871419;29;20071;-67
2022/06/09 12:48:33;;;;;;;6.88;2.05;;;6.30;99.90;;;;;;4871613;29;20038;-65
2022/06/09 12:51:02;;;;;;;3.85;2.30;;;6.30;99.90;;;;;;4870308;29;20518;-68
2022/06/09 12:53:39;;;;;;;5.15;1.98;;;6.10;99.90;;;;;;4871744;29;20040;-66
2022/06/09 12:56:28;;;;;;;5.00;1.75;;;6.00;99.90;;;;;;4865931;29;20036;-64
2022/06/09 12:58:57;;;;;;;7.97;2.22;;;5.90;99.90;;;;;;4851526;29;20039;-66
2022/06/09 13:01:29;;;;;;;3.28;2.05;;;6.10;99.90;;;;;;4866562;29;20044;-71
2022/06/09 13:04:04;;;;;;;4.15;2.30;;;6.10;99.90;;;;;;4862701;29;20098;-66
2022/06/09 13:06:38;;;;;;;8.07;3.08;;;6.00;99.90;;;;;;4866219;29;20518;-63
2022/06/09 13:09:34;;;;;;;5.43;2.50;;;5.90;99.90;;;;;;4857848;29;20033;-64
2022/06/09 13:14:52;;;;;;;7.43;2.47;;;5.70;99.90;;;;;;4864570;29;20056;-70
2022/06/09 13:17:27;;;;;;;4.72;2.63;;;5.70;99.90;;;;;;4859378;29;20154;-66
2022/06/09 13:20:03;;;;;;;4.68;2.92;;;5.70;99.90;;;;;;4910399;29;20122;-67
2022/06/09 13:22:32;;;;;;;5.72;2.78;;;5.60;99.90;;;;;;4943401;29;20038;-65
2022/06/09 13:25:00;;;;;;;4.68;2.50;;;5.60;99.90;;;;;;4938663;28;20031;-67
2022/06/09 13:27:31;;;;;;;3.88;2.65;;;5.50;99.90;;;;;;4942424;29;20061;-70
2022/06/09 13:30:19;;;;;;;6.78;2.63;;;5.50;99.90;;;;;;4938053;28;20411;-66
2022/06/09 13:32:50;;;;;;;6.82;2.83;;;5.40;99.90;;;;;;4940292;28;20028;-67
2022/06/09 13:35:42;;;;;;;7.00;3.15;;;5.40;99.90;;;;;;4942985;29;20056;-69
2022/06/09 13:38:24;;;;;;;3.97;2.90;;;5.30;99.90;;;;;;4934509;29;20023;-66
2022/06/09 13:40:55;;;;;;;3.95;3.22;;;5.20;99.90;;;;;;4940580;29;20819;-70
2022/06/09 13:43:39;;;;;;;6.93;3.63;;;5.20;99.90;;;;;;4939249;29;20027;-67
2022/06/09 13:46:16;;;;;;;6.22;4.32;;;5.20;99.90;;;;;;4943492;29;20090;-65
2022/06/09 13:48:50;;;;;;;7.18;4.13;;;5.10;99.90;;;;;;4938101;29;20543;-67